sensor_id;sensor_type;location;lat;lon;timestamp;P1;durP1;ratioP1;P2;durP2;ratioP2
56181;SDS011;51963;46.052;14.544;2023-03-21T00:01:35;53.97;;;27.65;;
56181;SDS011;51963;46.052;14.544;2023-03-21T00:04:01;52.85;;;28.15;;
56181;SDS011;51963;46.052;14.544;2023-03-21T00:06:27;53.63;;;26.92;;
56181;SDS011;51963;46.052;14.544;2023-03-21T00:08:53;54.55;;;29.17;;
56181;SDS011;51963;46.052;14.544;2023-03-21T00:11:18;48.53;;;26.42;;
56181;SDS011;51963;46.052;14.544;2023-03-21T00:13:45;53.22;;;28.08;;
56181;SDS011;51963;46.052;14.544;2023-03-21T00:16:13;52.22;;;27.08;;
56181;SDS011;51963;46.052;14.544;2023-03-21T00:18:43;50.78;;;27.95;;
56181;SDS011;51963;46.052;14.544;2023-03-21T00:21:14;51.40;;;28.35;;
56181;SDS011;51963;46.052;14.544;2023-03-21T00:26:08;44.33;;;26.05;;
56181;SDS011;51963;46.052;14.544;2023-03-21T00:28:35;48.33;;;26.63;;
56181;SDS011;51963;46.052;14.544;2023-03-21T00:31:02;49.00;;;28.20;;
56181;SDS011;51963;46.052;14.544;2023-03-21T00:33:28;52.03;;;27.17;;
56181;SDS011;51963;46.052;14.544;2023-03-21T00:35:54;49.58;;;27.42;;
56181;SDS011;51963;46.052;14.544;2023-03-21T00:38:21;49.58;;;26.20;;
56181;SDS011;51963;46.052;14.544;2023-03-21T00:40:47;53.70;;;28.42;;
56181;SDS011;51963;46.052;14.544;2023-03-21T00:43:13;49.97;;;27.13;;
56181;SDS011;51963;46.052;14.544;2023-03-21T00:45:44;52.33;;;27.73;;
56181;SDS011;51963;46.052;14.544;2023-03-21T00:48:11;54.22;;;27.73;;
56181;SDS011;51963;46.052;14.544;2023-03-21T00:50:39;51.38;;;28.80;;
56181;SDS011;51963;46.052;14.544;2023-03-21T00:53:06;54.40;;;26.98;;
56181;SDS011;51963;46.052;14.544;2023-03-21T00:55:32;53.17;;;25.63;;
56181;SDS011;51963;46.052;14.544;2023-03-21T00:57:59;48.92;;;26.27;;
56181;SDS011;51963;46.052;14.544;2023-03-21T01:00:25;50.80;;;26.60;;
56181;SDS011;51963;46.052;14.544;2023-03-21T01:02:51;52.60;;;27.92;;
56181;SDS011;51963;46.052;14.544;2023-03-21T01:05:23;52.13;;;27.90;;
56181;SDS011;51963;46.052;14.544;2023-03-21T01:08:10;50.05;;;26.67;;
56181;SDS011;51963;46.052;14.544;2023-03-21T01:10:38;50.20;;;26.77;;
56181;SDS011;51963;46.052;14.544;2023-03-21T01:13:06;53.45;;;27.85;;
56181;SDS011;51963;46.052;14.544;2023-03-21T01:15:32;46.53;;;26.95;;
56181;SDS011;51963;46.052;14.544;2023-03-21T01:18:00;50.13;;;26.70;;
56181;SDS011;51963;46.052;14.544;2023-03-21T01:20:28;51.45;;;27.95;;
56181;SDS011;51963;46.052;14.544;2023-03-21T01:22:56;53.03;;;27.15;;
56181;SDS011;51963;46.052;14.544;2023-03-21T01:25:22;54.78;;;28.13;;
56181;SDS011;51963;46.052;14.544;2023-03-21T01:27:48;49.38;;;27.35;;
56181;SDS011;51963;46.052;14.544;2023-03-21T01:30:21;51.92;;;27.35;;
56181;SDS011;51963;46.052;14.544;2023-03-21T01:32:47;49.85;;;27.58;;
56181;SDS011;51963;46.052;14.544;2023-03-21T01:35:12;45.92;;;26.80;;
56181;SDS011;51963;46.052;14.544;2023-03-21T01:37:38;46.60;;;25.70;;
56181;SDS011;51963;46.052;14.544;2023-03-21T01:40:05;52.28;;;27.15;;
56181;SDS011;51963;46.052;14.544;2023-03-21T01:42:34;61.05;;;33.22;;
56181;SDS011;51963;46.052;14.544;2023-03-21T01:45:01;61.28;;;31.95;;
56181;SDS011;51963;46.052;14.544;2023-03-21T01:47:37;46.38;;;26.00;;
56181;SDS011;51963;46.052;14.544;2023-03-21T01:50:24;46.35;;;25.65;;
56181;SDS011;51963;46.052;14.544;2023-03-21T01:53:09;47.28;;;25.55;;
56181;SDS011;51963;46.052;14.544;2023-03-21T01:55:36;55.50;;;28.23;;
56181;SDS011;51963;46.052;14.544;2023-03-21T01:58:23;52.78;;;27.80;;
56181;SDS011;51963;46.052;14.544;2023-03-21T02:01:07;52.63;;;27.95;;
56181;SDS011;51963;46.052;14.544;2023-03-21T02:03:43;56.40;;;31.33;;
56181;SDS011;51963;46.052;14.544;2023-03-21T02:06:30;58.25;;;30.60;;
56181;SDS011;51963;46.052;14.544;2023-03-21T02:09:26;53.92;;;28.67;;
56181;SDS011;51963;46.052;14.544;2023-03-21T02:11:56;52.33;;;28.67;;
56181;SDS011;51963;46.052;14.544;2023-03-21T02:14:27;51.72;;;27.92;;
56181;SDS011;51963;46.052;14.544;2023-03-21T02:26:33;53.45;;;27.52;;
56181;SDS011;51963;46.052;14.544;2023-03-21T02:40:37;51.20;;;26.02;;
56181;SDS011;51963;46.052;14.544;2023-03-21T02:45:51;53.63;;;27.05;;
56181;SDS011;51963;46.052;14.544;2023-03-21T02:48:22;55.17;;;27.35;;
56181;SDS011;51963;46.052;14.544;2023-03-21T02:50:54;50.70;;;26.98;;
56181;SDS011;51963;46.052;14.544;2023-03-21T02:53:27;56.90;;;27.58;;
56181;SDS011;51963;46.052;14.544;2023-03-21T02:55:57;50.30;;;27.02;;
56181;SDS011;51963;46.052;14.544;2023-03-21T02:58:24;50.28;;;25.98;;
56181;SDS011;51963;46.052;14.544;2023-03-21T03:00:59;49.60;;;26.08;;
56181;SDS011;51963;46.052;14.544;2023-03-21T03:03:34;56.55;;;28.98;;
56181;SDS011;51963;46.052;14.544;2023-03-21T03:06:06;53.08;;;27.33;;
56181;SDS011;51963;46.052;14.544;2023-03-21T03:11:17;48.70;;;25.90;;
56181;SDS011;51963;46.052;14.544;2023-03-21T03:19:48;50.17;;;24.98;;
56181;SDS011;51963;46.052;14.544;2023-03-21T03:22:28;54.40;;;27.67;;
56181;SDS011;51963;46.052;14.544;2023-03-21T03:25:04;46.72;;;24.85;;
56181;SDS011;51963;46.052;14.544;2023-03-21T03:27:36;48.35;;;25.95;;
56181;SDS011;51963;46.052;14.544;2023-03-21T03:30:06;49.70;;;25.40;;
56181;SDS011;51963;46.052;14.544;2023-03-21T03:33:08;52.58;;;26.33;;
56181;SDS011;51963;46.052;14.544;2023-03-21T03:35:30;47.92;;;25.88;;
56181;SDS011;51963;46.052;14.544;2023-03-21T03:38:00;51.72;;;25.77;;
56181;SDS011;51963;46.052;14.544;2023-03-21T03:40:44;48.85;;;25.52;;
56181;SDS011;51963;46.052;14.544;2023-03-21T03:43:49;47.58;;;25.55;;
56181;SDS011;51963;46.052;14.544;2023-03-21T03:46:30;48.72;;;26.23;;
56181;SDS011;51963;46.052;14.544;2023-03-21T03:49:07;50.95;;;26.58;;
56181;SDS011;51963;46.052;14.544;2023-03-21T03:51:50;51.55;;;26.27;;
56181;SDS011;51963;46.052;14.544;2023-03-21T03:54:28;58.35;;;28.67;;
56181;SDS011;51963;46.052;14.544;2023-03-21T03:57:01;61.63;;;32.03;;
56181;SDS011;51963;46.052;14.544;2023-03-21T03:59:33;59.75;;;32.15;;
56181;SDS011;51963;46.052;14.544;2023-03-21T04:02:26;63.13;;;32.15;;
56181;SDS011;51963;46.052;14.544;2023-03-21T04:04:53;70.57;;;35.83;;
56181;SDS011;51963;46.052;14.544;2023-03-21T04:07:22;62.40;;;32.58;;
56181;SDS011;51963;46.052;14.544;2023-03-21T04:09:51;65.82;;;33.97;;
56181;SDS011;51963;46.052;14.544;2023-03-21T04:12:19;61.28;;;31.50;;
56181;SDS011;51963;46.052;14.544;2023-03-21T04:15:16;55.53;;;29.33;;
56181;SDS011;51963;46.052;14.544;2023-03-21T04:17:48;54.78;;;29.02;;
56181;SDS011;51963;46.052;14.544;2023-03-21T04:20:14;55.22;;;27.88;;
56181;SDS011;51963;46.052;14.544;2023-03-21T04:22:40;52.95;;;27.58;;
56181;SDS011;51963;46.052;14.544;2023-03-21T04:25:06;58.17;;;29.40;;
56181;SDS011;51963;46.052;14.544;2023-03-21T04:27:34;51.40;;;27.13;;
56181;SDS011;51963;46.052;14.544;2023-03-21T04:30:25;59.10;;;29.48;;
56181;SDS011;51963;46.052;14.544;2023-03-21T04:33:00;52.78;;;27.77;;
56181;SDS011;51963;46.052;14.544;2023-03-21T04:35:28;51.17;;;26.70;;
56181;SDS011;51963;46.052;14.544;2023-03-21T04:37:54;50.75;;;25.23;;
56181;SDS011;51963;46.052;14.544;2023-03-21T04:40:21;52.65;;;24.67;;
56181;SDS011;51963;46.052;14.544;2023-03-21T04:42:48;51.22;;;27.08;;
56181;SDS011;51963;46.052;14.544;2023-03-21T04:45:14;51.60;;;25.23;;
56181;SDS011;51963;46.052;14.544;2023-03-21T04:47:43;53.15;;;25.77;;
56181;SDS011;51963;46.052;14.544;2023-03-21T04:50:10;46.63;;;24.98;;
56181;SDS011;51963;46.052;14.544;2023-03-21T04:52:38;52.80;;;27.17;;
56181;SDS011;51963;46.052;14.544;2023-03-21T04:55:04;45.53;;;24.35;;
56181;SDS011;51963;46.052;14.544;2023-03-21T04:57:35;50.83;;;25.75;;
56181;SDS011;51963;46.052;14.544;2023-03-21T05:00:04;49.70;;;25.98;;
56181;SDS011;51963;46.052;14.544;2023-03-21T05:02:35;50.65;;;25.50;;
56181;SDS011;51963;46.052;14.544;2023-03-21T05:05:01;49.70;;;24.65;;
56181;SDS011;51963;46.052;14.544;2023-03-21T05:07:28;49.65;;;25.17;;
56181;SDS011;51963;46.052;14.544;2023-03-21T05:09:55;50.75;;;25.95;;
56181;SDS011;51963;46.052;14.544;2023-03-21T05:12:21;50.22;;;25.52;;
56181;SDS011;51963;46.052;14.544;2023-03-21T05:14:47;63.17;;;29.45;;
56181;SDS011;51963;46.052;14.544;2023-03-21T05:17:13;56.95;;;27.98;;
56181;SDS011;51963;46.052;14.544;2023-03-21T05:19:49;52.65;;;27.17;;
56181;SDS011;51963;46.052;14.544;2023-03-21T05:24:44;61.75;;;28.92;;
56181;SDS011;51963;46.052;14.544;2023-03-21T05:27:31;77.95;;;32.63;;
56181;SDS011;51963;46.052;14.544;2023-03-21T05:30:14;82.90;;;33.13;;
56181;SDS011;51963;46.052;14.544;2023-03-21T05:32:43;86.18;;;34.42;;
56181;SDS011;51963;46.052;14.544;2023-03-21T05:35:10;99.97;;;35.50;;
56181;SDS011;51963;46.052;14.544;2023-03-21T05:37:37;72.30;;;32.67;;
56181;SDS011;51963;46.052;14.544;2023-03-21T05:40:07;75.80;;;32.70;;
56181;SDS011;51963;46.052;14.544;2023-03-21T05:42:36;70.80;;;31.83;;
56181;SDS011;51963;46.052;14.544;2023-03-21T05:45:10;82.43;;;33.50;;
56181;SDS011;51963;46.052;14.544;2023-03-21T05:47:39;65.15;;;31.85;;
56181;SDS011;51963;46.052;14.544;2023-03-21T05:50:05;70.60;;;32.10;;
56181;SDS011;51963;46.052;14.544;2023-03-21T05:52:32;63.95;;;29.80;;
56181;SDS011;51963;46.052;14.544;2023-03-21T05:55:02;73.93;;;34.22;;
56181;SDS011;51963;46.052;14.544;2023-03-21T05:57:28;68.32;;;30.48;;
56181;SDS011;51963;46.052;14.544;2023-03-21T05:59:57;59.72;;;30.67;;
56181;SDS011;51963;46.052;14.544;2023-03-21T06:02:22;70.03;;;34.45;;
56181;SDS011;51963;46.052;14.544;2023-03-21T06:04:48;66.20;;;31.00;;
56181;SDS011;51963;46.052;14.544;2023-03-21T06:07:16;68.97;;;33.08;;
56181;SDS011;51963;46.052;14.544;2023-03-21T06:09:42;67.55;;;33.15;;
56181;SDS011;51963;46.052;14.544;2023-03-21T06:12:10;86.38;;;33.38;;
56181;SDS011;51963;46.052;14.544;2023-03-21T06:14:57;99.20;;;34.40;;
56181;SDS011;51963;46.052;14.544;2023-03-21T06:17:29;57.63;;;30.45;;
56181;SDS011;51963;46.052;14.544;2023-03-21T06:20:00;67.95;;;32.83;;
56181;SDS011;51963;46.052;14.544;2023-03-21T06:22:30;71.75;;;33.58;;
56181;SDS011;51963;46.052;14.544;2023-03-21T06:24:56;70.47;;;31.42;;
56181;SDS011;51963;46.052;14.544;2023-03-21T06:27:23;76.38;;;31.60;;
56181;SDS011;51963;46.052;14.544;2023-03-21T06:29:52;75.47;;;32.33;;
56181;SDS011;51963;46.052;14.544;2023-03-21T06:32:18;63.22;;;31.17;;
56181;SDS011;51963;46.052;14.544;2023-03-21T06:34:46;67.88;;;30.98;;
56181;SDS011;51963;46.052;14.544;2023-03-21T06:37:13;61.93;;;30.37;;
56181;SDS011;51963;46.052;14.544;2023-03-21T06:39:40;64.70;;;29.52;;
56181;SDS011;51963;46.052;14.544;2023-03-21T06:42:07;62.45;;;29.05;;
56181;SDS011;51963;46.052;14.544;2023-03-21T06:44:33;58.42;;;28.90;;
56181;SDS011;51963;46.052;14.544;2023-03-21T06:47:04;56.63;;;30.15;;
56181;SDS011;51963;46.052;14.544;2023-03-21T06:49:30;60.08;;;31.23;;
56181;SDS011;51963;46.052;14.544;2023-03-21T06:52:00;62.35;;;30.23;;
56181;SDS011;51963;46.052;14.544;2023-03-21T06:54:26;64.43;;;30.88;;
56181;SDS011;51963;46.052;14.544;2023-03-21T06:56:58;62.88;;;30.80;;
56181;SDS011;51963;46.052;14.544;2023-03-21T06:59:31;60.65;;;31.52;;
56181;SDS011;51963;46.052;14.544;2023-03-21T07:02:02;65.00;;;31.38;;
56181;SDS011;51963;46.052;14.544;2023-03-21T07:04:31;63.40;;;33.63;;
56181;SDS011;51963;46.052;14.544;2023-03-21T07:06:57;70.05;;;35.40;;
56181;SDS011;51963;46.052;14.544;2023-03-21T07:09:23;65.35;;;31.48;;
56181;SDS011;51963;46.052;14.544;2023-03-21T07:11:54;58.80;;;31.90;;
56181;SDS011;51963;46.052;14.544;2023-03-21T07:14:24;58.45;;;31.85;;
56181;SDS011;51963;46.052;14.544;2023-03-21T07:16:50;67.43;;;33.88;;
56181;SDS011;51963;46.052;14.544;2023-03-21T07:19:16;68.65;;;34.25;;
56181;SDS011;51963;46.052;14.544;2023-03-21T07:21:41;74.53;;;35.75;;
56181;SDS011;51963;46.052;14.544;2023-03-21T07:24:07;78.28;;;35.95;;
56181;SDS011;51963;46.052;14.544;2023-03-21T07:26:37;66.72;;;35.42;;
56181;SDS011;51963;46.052;14.544;2023-03-21T07:29:04;71.60;;;35.63;;
56181;SDS011;51963;46.052;14.544;2023-03-21T07:31:30;67.85;;;35.05;;
56181;SDS011;51963;46.052;14.544;2023-03-21T07:33:56;71.63;;;35.13;;
56181;SDS011;51963;46.052;14.544;2023-03-21T07:36:24;66.40;;;35.63;;
56181;SDS011;51963;46.052;14.544;2023-03-21T07:38:50;63.78;;;35.13;;
56181;SDS011;51963;46.052;14.544;2023-03-21T07:41:20;68.70;;;35.95;;
56181;SDS011;51963;46.052;14.544;2023-03-21T07:43:49;68.25;;;35.83;;
56181;SDS011;51963;46.052;14.544;2023-03-21T07:46:17;67.10;;;35.75;;
56181;SDS011;51963;46.052;14.544;2023-03-21T07:48:42;67.50;;;37.38;;
56181;SDS011;51963;46.052;14.544;2023-03-21T07:51:08;70.05;;;37.75;;
56181;SDS011;51963;46.052;14.544;2023-03-21T07:53:34;71.22;;;37.97;;
56181;SDS011;51963;46.052;14.544;2023-03-21T07:56:02;67.45;;;38.03;;
56181;SDS011;51963;46.052;14.544;2023-03-21T08:00:57;70.43;;;36.22;;
56181;SDS011;51963;46.052;14.544;2023-03-21T08:03:22;64.22;;;33.40;;
56181;SDS011;51963;46.052;14.544;2023-03-21T08:05:50;59.65;;;34.47;;
56181;SDS011;51963;46.052;14.544;2023-03-21T08:08:16;56.95;;;33.05;;
56181;SDS011;51963;46.052;14.544;2023-03-21T08:10:42;52.63;;;31.73;;
56181;SDS011;51963;46.052;14.544;2023-03-21T08:13:08;49.55;;;29.75;;
56181;SDS011;51963;46.052;14.544;2023-03-21T08:15:34;54.92;;;29.33;;
56181;SDS011;51963;46.052;14.544;2023-03-21T08:17:59;57.05;;;33.67;;
56181;SDS011;51963;46.052;14.544;2023-03-21T08:20:25;59.58;;;36.72;;
56181;SDS011;51963;46.052;14.544;2023-03-21T08:22:51;50.10;;;29.60;;
56181;SDS011;51963;46.052;14.544;2023-03-21T08:25:18;44.10;;;26.80;;
56181;SDS011;51963;46.052;14.544;2023-03-21T08:30:15;45.78;;;27.90;;
56181;SDS011;51963;46.052;14.544;2023-03-21T08:32:43;46.00;;;28.15;;
56181;SDS011;51963;46.052;14.544;2023-03-21T08:35:10;44.00;;;27.70;;
56181;SDS011;51963;46.052;14.544;2023-03-21T08:37:37;46.35;;;28.85;;
56181;SDS011;51963;46.052;14.544;2023-03-21T08:40:04;43.50;;;26.92;;
56181;SDS011;51963;46.052;14.544;2023-03-21T08:42:33;41.30;;;26.67;;
56181;SDS011;51963;46.052;14.544;2023-03-21T08:44:59;36.88;;;23.98;;
56181;SDS011;51963;46.052;14.544;2023-03-21T08:47:25;36.70;;;22.00;;
56181;SDS011;51963;46.052;14.544;2023-03-21T08:49:51;36.08;;;23.05;;
56181;SDS011;51963;46.052;14.544;2023-03-21T08:52:16;41.88;;;25.08;;
56181;SDS011;51963;46.052;14.544;2023-03-21T08:54:42;42.67;;;26.38;;
56181;SDS011;51963;46.052;14.544;2023-03-21T08:57:09;39.35;;;24.73;;
56181;SDS011;51963;46.052;14.544;2023-03-21T08:59:35;42.08;;;25.70;;
56181;SDS011;51963;46.052;14.544;2023-03-21T09:02:02;37.80;;;24.23;;
56181;SDS011;51963;46.052;14.544;2023-03-21T09:04:27;34.70;;;21.38;;
56181;SDS011;51963;46.052;14.544;2023-03-21T09:06:55;27.13;;;18.73;;
56181;SDS011;51963;46.052;14.544;2023-03-21T09:09:21;29.27;;;18.02;;
56181;SDS011;51963;46.052;14.544;2023-03-21T09:11:46;28.00;;;17.67;;
56181;SDS011;51963;46.052;14.544;2023-03-21T09:14:12;29.70;;;20.13;;
56181;SDS011;51963;46.052;14.544;2023-03-21T09:16:38;35.85;;;20.33;;
56181;SDS011;51963;46.052;14.544;2023-03-21T09:19:04;30.83;;;20.15;;
56181;SDS011;51963;46.052;14.544;2023-03-21T09:21:33;33.55;;;21.60;;
56181;SDS011;51963;46.052;14.544;2023-03-21T09:24:00;29.83;;;20.85;;
56181;SDS011;51963;46.052;14.544;2023-03-21T09:26:27;34.10;;;20.88;;
56181;SDS011;51963;46.052;14.544;2023-03-21T09:28:54;32.92;;;20.33;;
56181;SDS011;51963;46.052;14.544;2023-03-21T09:31:20;33.38;;;19.77;;
56181;SDS011;51963;46.052;14.544;2023-03-21T09:33:48;36.63;;;20.75;;
56181;SDS011;51963;46.052;14.544;2023-03-21T09:36:14;31.92;;;20.75;;
56181;SDS011;51963;46.052;14.544;2023-03-21T09:38:44;32.75;;;19.30;;
56181;SDS011;51963;46.052;14.544;2023-03-21T09:41:16;28.20;;;18.08;;
56181;SDS011;51963;46.052;14.544;2023-03-21T09:46:30;28.73;;;17.48;;
56181;SDS011;51963;46.052;14.544;2023-03-21T09:49:00;29.88;;;16.75;;
56181;SDS011;51963;46.052;14.544;2023-03-21T09:51:33;27.98;;;16.50;;
56181;SDS011;51963;46.052;14.544;2023-03-21T09:54:05;26.58;;;16.98;;
56181;SDS011;51963;46.052;14.544;2023-03-21T09:56:36;27.13;;;16.75;;
56181;SDS011;51963;46.052;14.544;2023-03-21T09:59:07;27.00;;;16.75;;
56181;SDS011;51963;46.052;14.544;2023-03-21T10:01:45;24.40;;;15.82;;
56181;SDS011;51963;46.052;14.544;2023-03-21T10:04:13;23.48;;;15.25;;
56181;SDS011;51963;46.052;14.544;2023-03-21T10:06:55;25.25;;;17.15;;
56181;SDS011;51963;46.052;14.544;2023-03-21T10:09:24;24.08;;;16.00;;
56181;SDS011;51963;46.052;14.544;2023-03-21T10:11:56;26.65;;;17.33;;
56181;SDS011;51963;46.052;14.544;2023-03-21T10:14:39;28.20;;;17.20;;
56181;SDS011;51963;46.052;14.544;2023-03-21T10:17:17;25.95;;;16.00;;
56181;SDS011;51963;46.052;14.544;2023-03-21T10:23:14;23.90;;;16.05;;
56181;SDS011;51963;46.052;14.544;2023-03-21T10:25:45;31.35;;;15.95;;
56181;SDS011;51963;46.052;14.544;2023-03-21T10:28:19;23.10;;;16.00;;
56181;SDS011;51963;46.052;14.544;2023-03-21T10:33:24;20.77;;;15.23;;
56181;SDS011;51963;46.052;14.544;2023-03-21T10:36:07;22.17;;;15.63;;
56181;SDS011;51963;46.052;14.544;2023-03-21T10:38:50;20.65;;;13.90;;
56181;SDS011;51963;46.052;14.544;2023-03-21T10:41:22;20.75;;;14.95;;
56181;SDS011;51963;46.052;14.544;2023-03-21T10:46:38;21.08;;;15.00;;
56181;SDS011;51963;46.052;14.544;2023-03-21T10:49:15;24.48;;;14.25;;
56181;SDS011;51963;46.052;14.544;2023-03-21T10:51:41;19.90;;;14.30;;
56181;SDS011;51963;46.052;14.544;2023-03-21T10:54:10;21.45;;;15.07;;
56181;SDS011;51963;46.052;14.544;2023-03-21T10:56:55;21.75;;;14.20;;
56181;SDS011;51963;46.052;14.544;2023-03-21T10:59:25;19.98;;;13.48;;
56181;SDS011;51963;46.052;14.544;2023-03-21T11:01:58;20.40;;;13.40;;
56181;SDS011;51963;46.052;14.544;2023-03-21T11:04:27;19.05;;;13.15;;
56181;SDS011;51963;46.052;14.544;2023-03-21T11:06:55;20.67;;;13.10;;
56181;SDS011;51963;46.052;14.544;2023-03-21T11:09:24;15.80;;;12.55;;
56181;SDS011;51963;46.052;14.544;2023-03-21T11:12:14;20.73;;;12.93;;
56181;SDS011;51963;46.052;14.544;2023-03-21T11:14:43;17.00;;;12.82;;
56181;SDS011;51963;46.052;14.544;2023-03-21T11:22:14;16.30;;;12.48;;
56181;SDS011;51963;46.052;14.544;2023-03-21T11:24:41;16.67;;;12.10;;
56181;SDS011;51963;46.052;14.544;2023-03-21T11:27:12;16.77;;;11.63;;
56181;SDS011;51963;46.052;14.544;2023-03-21T11:29:50;15.30;;;11.55;;
56181;SDS011;51963;46.052;14.544;2023-03-21T11:32:21;13.50;;;10.48;;
56181;SDS011;51963;46.052;14.544;2023-03-21T11:35:00;12.57;;;9.93;;
56181;SDS011;51963;46.052;14.544;2023-03-21T11:42:54;13.75;;;10.10;;
56181;SDS011;51963;46.052;14.544;2023-03-21T11:45:31;12.13;;;9.05;;
56181;SDS011;51963;46.052;14.544;2023-03-21T11:48:00;10.70;;;8.65;;
56181;SDS011;51963;46.052;14.544;2023-03-21T12:00:43;11.13;;;8.00;;
56181;SDS011;51963;46.052;14.544;2023-03-21T12:03:33;11.80;;;7.95;;
56181;SDS011;51963;46.052;14.544;2023-03-21T12:06:44;9.98;;;7.78;;
56181;SDS011;51963;46.052;14.544;2023-03-21T12:09:13;10.18;;;7.53;;
56181;SDS011;51963;46.052;14.544;2023-03-21T12:17:36;8.27;;;6.07;;
56181;SDS011;51963;46.052;14.544;2023-03-21T12:24:05;8.10;;;6.32;;
56181;SDS011;51963;46.052;14.544;2023-03-21T12:26:25;7.65;;;6.40;;
56181;SDS011;51963;46.052;14.544;2023-03-21T12:29:06;11.38;;;7.90;;
56181;SDS011;51963;46.052;14.544;2023-03-21T12:45:53;7.88;;;4.10;;
56181;SDS011;51963;46.052;14.544;2023-03-21T12:48:27;3.83;;;3.25;;
56181;SDS011;51963;46.052;14.544;2023-03-21T12:51:01;3.25;;;2.45;;
56181;SDS011;51963;46.052;14.544;2023-03-21T12:53:34;3.50;;;2.50;;
56181;SDS011;51963;46.052;14.544;2023-03-21T12:56:30;4.70;;;2.65;;
56181;SDS011;51963;46.052;14.544;2023-03-21T13:01:59;5.60;;;4.35;;
56181;SDS011;51963;46.052;14.544;2023-03-21T13:04:46;5.55;;;4.13;;
56181;SDS011;51963;46.052;14.544;2023-03-21T13:07:36;4.90;;;4.00;;
56181;SDS011;51963;46.052;14.544;2023-03-21T13:10:11;5.10;;;4.60;;
56181;SDS011;51963;46.052;14.544;2023-03-21T13:15:58;3.85;;;3.47;;
56181;SDS011;51963;46.052;14.544;2023-03-21T13:20:55;5.75;;;3.60;;
56181;SDS011;51963;46.052;14.544;2023-03-21T13:23:35;3.95;;;3.50;;
56181;SDS011;51963;46.052;14.544;2023-03-21T13:26:02;5.90;;;3.30;;
56181;SDS011;51963;46.052;14.544;2023-03-21T13:28:33;4.03;;;3.30;;
56181;SDS011;51963;46.052;14.544;2023-03-21T13:33:46;3.30;;;3.00;;
56181;SDS011;51963;46.052;14.544;2023-03-21T13:36:24;5.18;;;3.60;;
56181;SDS011;51963;46.052;14.544;2023-03-21T13:39:02;4.35;;;2.85;;
56181;SDS011;51963;46.052;14.544;2023-03-21T13:41:33;5.20;;;3.47;;
56181;SDS011;51963;46.052;14.544;2023-03-21T14:04:37;3.60;;;3.17;;
56181;SDS011;51963;46.052;14.544;2023-03-21T14:07:06;4.43;;;2.83;;
56181;SDS011;51963;46.052;14.544;2023-03-21T14:12:15;4.85;;;3.15;;
56181;SDS011;51963;46.052;14.544;2023-03-21T14:14:48;3.92;;;3.15;;
56181;SDS011;51963;46.052;14.544;2023-03-21T14:19:55;3.10;;;2.55;;
56181;SDS011;51963;46.052;14.544;2023-03-21T14:22:26;2.83;;;2.47;;
56181;SDS011;51963;46.052;14.544;2023-03-21T14:24:58;4.13;;;3.53;;
56181;SDS011;51963;46.052;14.544;2023-03-21T14:27:26;2.53;;;2.33;;
56181;SDS011;51963;46.052;14.544;2023-03-21T14:29:55;5.07;;;2.80;;
56181;SDS011;51963;46.052;14.544;2023-03-21T14:32:25;2.92;;;2.67;;
56181;SDS011;51963;46.052;14.544;2023-03-21T14:35:00;3.85;;;2.88;;
56181;SDS011;51963;46.052;14.544;2023-03-21T14:37:37;3.03;;;2.55;;
56181;SDS011;51963;46.052;14.544;2023-03-21T14:40:06;5.68;;;2.50;;
56181;SDS011;51963;46.052;14.544;2023-03-21T14:42:47;4.15;;;2.80;;
56181;SDS011;51963;46.052;14.544;2023-03-21T14:45:21;4.47;;;2.30;;
56181;SDS011;51963;46.052;14.544;2023-03-21T14:53:02;3.30;;;2.50;;
56181;SDS011;51963;46.052;14.544;2023-03-21T14:55:28;3.25;;;2.15;;
56181;SDS011;51963;46.052;14.544;2023-03-21T14:57:54;3.17;;;2.00;;
56181;SDS011;51963;46.052;14.544;2023-03-21T15:00:25;2.40;;;2.20;;
56181;SDS011;51963;46.052;14.544;2023-03-21T15:02:54;4.38;;;2.50;;
56181;SDS011;51963;46.052;14.544;2023-03-21T15:05:24;3.95;;;2.20;;
56181;SDS011;51963;46.052;14.544;2023-03-21T15:07:57;3.13;;;2.25;;
56181;SDS011;51963;46.052;14.544;2023-03-21T15:10:26;4.03;;;2.00;;
56181;SDS011;51963;46.052;14.544;2023-03-21T15:12:58;2.15;;;1.95;;
56181;SDS011;51963;46.052;14.544;2023-03-21T15:15:27;2.28;;;2.08;;
56181;SDS011;51963;46.052;14.544;2023-03-21T15:17:55;3.55;;;2.00;;
56181;SDS011;51963;46.052;14.544;2023-03-21T15:20:27;2.80;;;1.85;;
56181;SDS011;51963;46.052;14.544;2023-03-21T15:22:59;2.45;;;1.80;;
56181;SDS011;51963;46.052;14.544;2023-03-21T15:25:29;3.17;;;2.08;;
56181;SDS011;51963;46.052;14.544;2023-03-21T15:27:58;4.80;;;1.85;;
56181;SDS011;51963;46.052;14.544;2023-03-21T15:30:29;3.53;;;2.10;;
56181;SDS011;51963;46.052;14.544;2023-03-21T15:32:57;2.83;;;1.80;;
56181;SDS011;51963;46.052;14.544;2023-03-21T15:35:32;3.03;;;2.00;;
56181;SDS011;51963;46.052;14.544;2023-03-21T15:38:02;2.38;;;2.03;;
56181;SDS011;51963;46.052;14.544;2023-03-21T15:40:29;3.55;;;2.03;;
56181;SDS011;51963;46.052;14.544;2023-03-21T15:43:12;5.35;;;2.35;;
56181;SDS011;51963;46.052;14.544;2023-03-21T15:45:50;3.55;;;2.17;;
56181;SDS011;51963;46.052;14.544;2023-03-21T15:48:25;2.17;;;1.80;;
56181;SDS011;51963;46.052;14.544;2023-03-21T15:53:21;2.40;;;2.00;;
56181;SDS011;51963;46.052;14.544;2023-03-21T15:58:19;1.88;;;1.73;;
56181;SDS011;51963;46.052;14.544;2023-03-21T16:00:48;2.65;;;1.77;;
56181;SDS011;51963;46.052;14.544;2023-03-21T16:03:40;2.92;;;1.70;;
56181;SDS011;51963;46.052;14.544;2023-03-21T16:08:51;2.72;;;2.22;;
56181;SDS011;51963;46.052;14.544;2023-03-21T16:13:47;3.85;;;2.40;;
56181;SDS011;51963;46.052;14.544;2023-03-21T16:16:14;6.30;;;2.70;;
56181;SDS011;51963;46.052;14.544;2023-03-21T16:18:47;4.95;;;2.35;;
56181;SDS011;51963;46.052;14.544;2023-03-21T16:21:16;4.30;;;2.50;;
56181;SDS011;51963;46.052;14.544;2023-03-21T16:23:44;4.65;;;2.28;;
56181;SDS011;51963;46.052;14.544;2023-03-21T16:26:15;4.37;;;2.60;;
56181;SDS011;51963;46.052;14.544;2023-03-21T16:28:43;5.50;;;2.88;;
56181;SDS011;51963;46.052;14.544;2023-03-21T16:31:12;3.97;;;2.50;;
56181;SDS011;51963;46.052;14.544;2023-03-21T16:33:40;6.07;;;2.72;;
56181;SDS011;51963;46.052;14.544;2023-03-21T16:36:09;8.40;;;2.95;;
56181;SDS011;51963;46.052;14.544;2023-03-21T16:38:37;6.28;;;3.28;;
56181;SDS011;51963;46.052;14.544;2023-03-21T16:41:04;11.90;;;3.00;;
56181;SDS011;51963;46.052;14.544;2023-03-21T16:43:34;6.90;;;2.90;;
56181;SDS011;51963;46.052;14.544;2023-03-21T16:46:04;7.32;;;2.70;;
56181;SDS011;51963;46.052;14.544;2023-03-21T16:48:30;6.45;;;3.33;;
56181;SDS011;51963;46.052;14.544;2023-03-21T16:50:58;10.82;;;3.70;;
56181;SDS011;51963;46.052;14.544;2023-03-21T16:55:52;12.13;;;3.33;;
56181;SDS011;51963;46.052;14.544;2023-03-21T16:58:27;11.88;;;3.10;;
56181;SDS011;51963;46.052;14.544;2023-03-21T17:00:56;9.75;;;3.67;;
56181;SDS011;51963;46.052;14.544;2023-03-21T17:03:22;16.08;;;4.97;;
56181;SDS011;51963;46.052;14.544;2023-03-21T17:08:16;12.15;;;4.15;;
56181;SDS011;51963;46.052;14.544;2023-03-21T17:13:10;14.70;;;4.68;;
56181;SDS011;51963;46.052;14.544;2023-03-21T17:15:36;12.02;;;4.22;;